sensor_id;sensor_type;location;lat;lon;timestamp;P1;durP1;ratioP1;P2;durP2;ratioP2
22254;SDS011;11296;42.684;23.322;2022-11-20T00:01:53;7.63;;;3.90;;
22254;SDS011;11296;42.684;23.322;2022-11-20T00:04:19;6.03;;;3.57;;
22254;SDS011;11296;42.684;23.322;2022-11-20T00:06:55;4.63;;;1.90;;
22254;SDS011;11296;42.684;23.322;2022-11-20T00:09:26;2.60;;;1.20;;
22254;SDS011;11296;42.684;23.322;2022-11-20T00:12:00;3.30;;;1.20;;
22254;SDS011;11296;42.684;23.322;2022-11-20T00:17:39;3.77;;;2.50;;
22254;SDS011;11296;42.684;23.322;2022-11-20T00:20:10;5.07;;;3.37;;
22254;SDS011;11296;42.684;23.322;2022-11-20T00:23:21;3.20;;;1.93;;
22254;SDS011;11296;42.684;23.322;2022-11-20T00:26:03;1.90;;;1.00;;
22254;SDS011;11296;42.684;23.322;2022-11-20T00:29:00;3.07;;;0.80;;
22254;SDS011;11296;42.684;23.322;2022-11-20T00:31:54;3.10;;;1.07;;
22254;SDS011;11296;42.684;23.322;2022-11-20T00:35:10;4.63;;;0.93;;
22254;SDS011;11296;42.684;23.322;2022-11-20T00:50:27;2.17;;;0.80;;
22254;SDS011;11296;42.684;23.322;2022-11-20T01:06:25;1.53;;;0.60;;
22254;SDS011;11296;42.684;23.322;2022-11-20T03:09:52;1.93;;;0.87;;
22254;SDS011;11296;42.684;23.322;2022-11-20T04:01:25;2.70;;;1.10;;
22254;SDS011;11296;42.684;23.322;2022-11-20T05:11:31;2.53;;;1.07;;
22254;SDS011;11296;42.684;23.322;2022-11-20T06:15:27;3.30;;;1.13;;
22254;SDS011;11296;42.684;23.322;2022-11-20T06:27:02;3.80;;;0.93;;
22254;SDS011;11296;42.684;23.322;2022-11-20T06:29:34;2.27;;;0.90;;
22254;SDS011;11296;42.684;23.322;2022-11-20T06:32:02;1.83;;;1.00;;
22254;SDS011;11296;42.684;23.322;2022-11-20T06:46:28;3.37;;;0.97;;
22254;SDS011;11296;42.684;23.322;2022-11-20T06:48:53;5.87;;;1.10;;
22254;SDS011;11296;42.684;23.322;2022-11-20T06:51:25;3.33;;;0.90;;
22254;SDS011;11296;42.684;23.322;2022-11-20T06:57:27;2.50;;;1.03;;
22254;SDS011;11296;42.684;23.322;2022-11-20T07:00:45;2.53;;;0.80;;
22254;SDS011;11296;42.684;23.322;2022-11-20T07:03:16;3.73;;;1.20;;
22254;SDS011;11296;42.684;23.322;2022-11-20T07:05:44;25.20;;;19.20;;
22254;SDS011;11296;42.684;23.322;2022-11-20T07:08:14;3.10;;;1.20;;
22254;SDS011;11296;42.684;23.322;2022-11-20T07:11:01;2.00;;;1.23;;
22254;SDS011;11296;42.684;23.322;2022-11-20T07:13:49;3.77;;;1.10;;
22254;SDS011;11296;42.684;23.322;2022-11-20T07:16:15;2.93;;;1.00;;
22254;SDS011;11296;42.684;23.322;2022-11-20T07:18:41;2.40;;;1.00;;
22254;SDS011;11296;42.684;23.322;2022-11-20T07:21:08;3.67;;;0.90;;
22254;SDS011;11296;42.684;23.322;2022-11-20T07:23:35;1.80;;;0.80;;
22254;SDS011;11296;42.684;23.322;2022-11-20T07:26:08;2.00;;;0.90;;
22254;SDS011;11296;42.684;23.322;2022-11-20T07:28:35;2.70;;;1.10;;
22254;SDS011;11296;42.684;23.322;2022-11-20T07:31:02;3.73;;;1.60;;
22254;SDS011;11296;42.684;23.322;2022-11-20T07:33:37;4.80;;;1.30;;
22254;SDS011;11296;42.684;23.322;2022-11-20T07:36:03;3.57;;;1.17;;
22254;SDS011;11296;42.684;23.322;2022-11-20T07:38:29;2.13;;;0.97;;
22254;SDS011;11296;42.684;23.322;2022-11-20T07:40:55;4.33;;;0.90;;
22254;SDS011;11296;42.684;23.322;2022-11-20T07:43:26;1.80;;;0.90;;
22254;SDS011;11296;42.684;23.322;2022-11-20T07:45:56;2.60;;;0.90;;
22254;SDS011;11296;42.684;23.322;2022-11-20T07:48:23;2.80;;;1.10;;
22254;SDS011;11296;42.684;23.322;2022-11-20T07:50:52;2.70;;;1.00;;
22254;SDS011;11296;42.684;23.322;2022-11-20T07:53:19;4.60;;;1.10;;
22254;SDS011;11296;42.684;23.322;2022-11-20T07:55:47;3.10;;;1.63;;
22254;SDS011;11296;42.684;23.322;2022-11-20T07:58:13;3.30;;;1.27;;
22254;SDS011;11296;42.684;23.322;2022-11-20T08:00:39;3.53;;;1.43;;
22254;SDS011;11296;42.684;23.322;2022-11-20T08:03:11;2.43;;;1.13;;
22254;SDS011;11296;42.684;23.322;2022-11-20T08:05:36;2.13;;;1.20;;
22254;SDS011;11296;42.684;23.322;2022-11-20T08:08:02;3.93;;;1.57;;
22254;SDS011;11296;42.684;23.322;2022-11-20T08:10:28;3.37;;;1.30;;
22254;SDS011;11296;42.684;23.322;2022-11-20T08:12:54;10.93;;;5.33;;
22254;SDS011;11296;42.684;23.322;2022-11-20T08:15:39;4.80;;;1.70;;
22254;SDS011;11296;42.684;23.322;2022-11-20T08:18:09;2.67;;;1.10;;
22254;SDS011;11296;42.684;23.322;2022-11-20T08:20:39;4.73;;;2.10;;
22254;SDS011;11296;42.684;23.322;2022-11-20T08:23:06;2.53;;;1.13;;
22254;SDS011;11296;42.684;23.322;2022-11-20T08:25:36;7.30;;;3.00;;
22254;SDS011;11296;42.684;23.322;2022-11-20T08:28:06;2.97;;;1.70;;
22254;SDS011;11296;42.684;23.322;2022-11-20T08:30:33;5.37;;;1.53;;
22254;SDS011;11296;42.684;23.322;2022-11-20T08:33:03;4.23;;;1.70;;
22254;SDS011;11296;42.684;23.322;2022-11-20T08:35:34;2.67;;;1.20;;
22254;SDS011;11296;42.684;23.322;2022-11-20T08:38:02;6.03;;;1.20;;
22254;SDS011;11296;42.684;23.322;2022-11-20T08:40:28;3.00;;;1.20;;
22254;SDS011;11296;42.684;23.322;2022-11-20T08:42:54;3.97;;;1.37;;
22254;SDS011;11296;42.684;23.322;2022-11-20T08:45:20;7.00;;;1.60;;
22254;SDS011;11296;42.684;23.322;2022-11-20T08:47:48;5.60;;;1.80;;
22254;SDS011;11296;42.684;23.322;2022-11-20T08:50:14;5.17;;;1.63;;
22254;SDS011;11296;42.684;23.322;2022-11-20T08:52:41;4.80;;;1.50;;
22254;SDS011;11296;42.684;23.322;2022-11-20T08:55:07;5.53;;;1.43;;
22254;SDS011;11296;42.684;23.322;2022-11-20T08:57:36;3.70;;;1.30;;
22254;SDS011;11296;42.684;23.322;2022-11-20T09:00:04;3.47;;;1.70;;
22254;SDS011;11296;42.684;23.322;2022-11-20T09:02:31;4.40;;;1.87;;
22254;SDS011;11296;42.684;23.322;2022-11-20T09:04:57;4.93;;;2.60;;
22254;SDS011;11296;42.684;23.322;2022-11-20T09:07:23;5.67;;;2.70;;
22254;SDS011;11296;42.684;23.322;2022-11-20T09:09:49;4.00;;;2.53;;
22254;SDS011;11296;42.684;23.322;2022-11-20T09:12:14;8.27;;;2.80;;
22254;SDS011;11296;42.684;23.322;2022-11-20T09:14:40;5.47;;;2.40;;
22254;SDS011;11296;42.684;23.322;2022-11-20T09:17:17;5.27;;;2.67;;
22254;SDS011;11296;42.684;23.322;2022-11-20T09:19:46;5.93;;;3.17;;
22254;SDS011;11296;42.684;23.322;2022-11-20T09:22:12;7.37;;;3.67;;
22254;SDS011;11296;42.684;23.322;2022-11-20T09:24:48;3.80;;;2.10;;
22254;SDS011;11296;42.684;23.322;2022-11-20T09:27:17;3.53;;;2.00;;
22254;SDS011;11296;42.684;23.322;2022-11-20T09:29:46;6.33;;;1.77;;
22254;SDS011;11296;42.684;23.322;2022-11-20T09:32:12;3.97;;;1.80;;
22254;SDS011;11296;42.684;23.322;2022-11-20T09:34:38;6.57;;;2.57;;
22254;SDS011;11296;42.684;23.322;2022-11-20T09:37:03;3.37;;;1.73;;
22254;SDS011;11296;42.684;23.322;2022-11-20T09:39:29;9.13;;;2.13;;
22254;SDS011;11296;42.684;23.322;2022-11-20T09:44:47;2.97;;;1.40;;
22254;SDS011;11296;42.684;23.322;2022-11-20T09:50:19;6.10;;;1.60;;
22254;SDS011;11296;42.684;23.322;2022-11-20T09:55:38;5.27;;;3.50;;
22254;SDS011;11296;42.684;23.322;2022-11-20T09:58:13;12.17;;;8.93;;
22254;SDS011;11296;42.684;23.322;2022-11-20T10:00:58;4.10;;;2.73;;
22254;SDS011;11296;42.684;23.322;2022-11-20T10:03:36;4.10;;;1.53;;
22254;SDS011;11296;42.684;23.322;2022-11-20T10:06:08;3.83;;;1.87;;
22254;SDS011;11296;42.684;23.322;2022-11-20T10:09:03;5.87;;;2.20;;
22254;SDS011;11296;42.684;23.322;2022-11-20T10:25:21;6.67;;;3.20;;
22254;SDS011;11296;42.684;23.322;2022-11-20T10:31:08;6.83;;;3.53;;
22254;SDS011;11296;42.684;23.322;2022-11-20T10:33:45;8.43;;;3.30;;
22254;SDS011;11296;42.684;23.322;2022-11-20T10:36:19;6.53;;;3.83;;
22254;SDS011;11296;42.684;23.322;2022-11-20T10:38:56;7.93;;;4.13;;
22254;SDS011;11296;42.684;23.322;2022-11-20T10:41:34;6.77;;;3.13;;
22254;SDS011;11296;42.684;23.322;2022-11-20T10:44:09;5.23;;;3.03;;
22254;SDS011;11296;42.684;23.322;2022-11-20T10:46:41;9.30;;;3.13;;
22254;SDS011;11296;42.684;23.322;2022-11-20T10:49:16;8.57;;;4.70;;
22254;SDS011;11296;42.684;23.322;2022-11-20T10:54:38;7.63;;;3.13;;
22254;SDS011;11296;42.684;23.322;2022-11-20T11:00:21;8.17;;;3.00;;
22254;SDS011;11296;42.684;23.322;2022-11-20T11:02:50;7.97;;;3.40;;
22254;SDS011;11296;42.684;23.322;2022-11-20T11:08:19;6.07;;;2.70;;
22254;SDS011;11296;42.684;23.322;2022-11-20T11:10:51;5.87;;;2.53;;
22254;SDS011;11296;42.684;23.322;2022-11-20T11:13:30;3.43;;;1.23;;
22254;SDS011;11296;42.684;23.322;2022-11-20T11:15:59;3.93;;;1.80;;
22254;SDS011;11296;42.684;23.322;2022-11-20T11:18:33;3.17;;;2.00;;
22254;SDS011;11296;42.684;23.322;2022-11-20T11:21:09;5.37;;;1.40;;
22254;SDS011;11296;42.684;23.322;2022-11-20T11:23:40;3.37;;;1.20;;
22254;SDS011;11296;42.684;23.322;2022-11-20T11:26:40;2.70;;;0.93;;
22254;SDS011;11296;42.684;23.322;2022-11-20T11:29:00;1.27;;;0.70;;
22254;SDS011;11296;42.684;23.322;2022-11-20T11:31:32;2.80;;;0.70;;
22254;SDS011;11296;42.684;23.322;2022-11-20T11:34:06;3.23;;;0.70;;
22254;SDS011;11296;42.684;23.322;2022-11-20T11:36:39;1.80;;;0.70;;
22254;SDS011;11296;42.684;23.322;2022-11-20T11:39:09;1.03;;;0.63;;
22254;SDS011;11296;42.684;23.322;2022-11-20T11:41:45;2.37;;;0.53;;
22254;SDS011;11296;42.684;23.322;2022-11-20T11:47:02;2.60;;;0.60;;
22254;SDS011;11296;42.684;23.322;2022-11-20T11:49:30;5.03;;;1.10;;
22254;SDS011;11296;42.684;23.322;2022-11-20T11:52:04;2.13;;;0.60;;
22254;SDS011;11296;42.684;23.322;2022-11-20T12:00:00;3.60;;;1.07;;
22254;SDS011;11296;42.684;23.322;2022-11-20T12:05:16;3.57;;;0.77;;
22254;SDS011;11296;42.684;23.322;2022-11-20T12:10:42;2.90;;;0.90;;
22254;SDS011;11296;42.684;23.322;2022-11-20T12:16:40;3.47;;;0.87;;
22254;SDS011;11296;42.684;23.322;2022-11-20T12:19:10;3.23;;;0.63;;
22254;SDS011;11296;42.684;23.322;2022-11-20T12:21:58;2.00;;;0.60;;
22254;SDS011;11296;42.684;23.322;2022-11-20T12:27:32;3.03;;;0.80;;
22254;SDS011;11296;42.684;23.322;2022-11-20T12:30:16;4.53;;;1.30;;
22254;SDS011;11296;42.684;23.322;2022-11-20T12:32:55;3.57;;;0.90;;
22254;SDS011;11296;42.684;23.322;2022-11-20T12:38:20;1.10;;;0.40;;
22254;SDS011;11296;42.684;23.322;2022-11-20T12:42:12;2.23;;;0.53;;
22254;SDS011;11296;42.684;23.322;2022-11-20T12:52:37;5.87;;;2.37;;
22254;SDS011;11296;42.684;23.322;2022-11-20T13:00:20;7.90;;;3.73;;
22254;SDS011;11296;42.684;23.322;2022-11-20T13:08:54;4.43;;;2.80;;
22254;SDS011;11296;42.684;23.322;2022-11-20T13:16:41;6.50;;;2.93;;
22254;SDS011;11296;42.684;23.322;2022-11-20T13:19:22;9.37;;;3.60;;
22254;SDS011;11296;42.684;23.322;2022-11-20T13:21:49;9.17;;;3.47;;
22254;SDS011;11296;42.684;23.322;2022-11-20T13:26:44;6.17;;;3.30;;
22254;SDS011;11296;42.684;23.322;2022-11-20T13:29:16;5.33;;;2.90;;
22254;SDS011;11296;42.684;23.322;2022-11-20T13:31:44;6.00;;;2.97;;
22254;SDS011;11296;42.684;23.322;2022-11-20T13:34:25;7.97;;;3.37;;
22254;SDS011;11296;42.684;23.322;2022-11-20T13:36:55;7.30;;;4.10;;
22254;SDS011;11296;42.684;23.322;2022-11-20T13:39:23;6.87;;;3.80;;
22254;SDS011;11296;42.684;23.322;2022-11-20T13:41:57;11.30;;;4.30;;
22254;SDS011;11296;42.684;23.322;2022-11-20T13:47:37;8.83;;;4.07;;
22254;SDS011;11296;42.684;23.322;2022-11-20T13:50:03;8.27;;;4.77;;
22254;SDS011;11296;42.684;23.322;2022-11-20T13:52:40;7.27;;;4.23;;
22254;SDS011;11296;42.684;23.322;2022-11-20T14:50:57;3.80;;;2.10;;
22254;SDS011;11296;42.684;23.322;2022-11-20T14:53:28;4.43;;;1.93;;
22254;SDS011;11296;42.684;23.322;2022-11-20T14:55:54;3.67;;;1.90;;
22254;SDS011;11296;42.684;23.322;2022-11-20T14:58:25;3.57;;;1.97;;
22254;SDS011;11296;42.684;23.322;2022-11-20T15:03:37;4.20;;;2.10;;
22254;SDS011;11296;42.684;23.322;2022-11-20T15:06:07;4.77;;;2.00;;
22254;SDS011;11296;42.684;23.322;2022-11-20T15:08:50;2.20;;;2.00;;
22254;SDS011;11296;42.684;23.322;2022-11-20T15:19:02;2.10;;;1.57;;
22254;SDS011;11296;42.684;23.322;2022-11-20T15:22:49;4.87;;;2.10;;
22254;SDS011;11296;42.684;23.322;2022-11-20T15:25:17;4.20;;;2.57;;
22254;SDS011;11296;42.684;23.322;2022-11-20T15:36:03;4.30;;;2.90;;
22254;SDS011;11296;42.684;23.322;2022-11-20T15:42:37;4.07;;;2.20;;
22254;SDS011;11296;42.684;23.322;2022-11-20T15:45:36;6.00;;;2.70;;
22254;SDS011;11296;42.684;23.322;2022-11-20T15:48:27;3.13;;;2.47;;
22254;SDS011;11296;42.684;23.322;2022-11-20T15:51:11;6.07;;;2.70;;
22254;SDS011;11296;42.684;23.322;2022-11-20T15:53:46;10.03;;;5.50;;
22254;SDS011;11296;42.684;23.322;2022-11-20T15:56:15;5.23;;;2.60;;
22254;SDS011;11296;42.684;23.322;2022-11-20T15:58:46;4.10;;;1.77;;
22254;SDS011;11296;42.684;23.322;2022-11-20T16:02:13;4.17;;;2.07;;
22254;SDS011;11296;42.684;23.322;2022-11-20T16:04:40;3.30;;;1.90;;
22254;SDS011;11296;42.684;23.322;2022-11-20T16:07:07;4.20;;;1.83;;
22254;SDS011;11296;42.684;23.322;2022-11-20T16:09:56;2.93;;;1.80;;
22254;SDS011;11296;42.684;23.322;2022-11-20T16:12:36;3.63;;;2.03;;
22254;SDS011;11296;42.684;23.322;2022-11-20T16:15:28;6.13;;;2.27;;
22254;SDS011;11296;42.684;23.322;2022-11-20T16:18:44;4.67;;;1.90;;
22254;SDS011;11296;42.684;23.322;2022-11-20T16:21:15;4.63;;;2.37;;
22254;SDS011;11296;42.684;23.322;2022-11-20T16:24:01;6.97;;;2.70;;
22254;SDS011;11296;42.684;23.322;2022-11-20T16:26:39;5.77;;;2.80;;
22254;SDS011;11296;42.684;23.322;2022-11-20T16:29:15;5.70;;;3.27;;
22254;SDS011;11296;42.684;23.322;2022-11-20T16:31:53;12.43;;;3.80;;
22254;SDS011;11296;42.684;23.322;2022-11-20T16:34:21;6.93;;;3.00;;
22254;SDS011;11296;42.684;23.322;2022-11-20T16:36:50;9.67;;;5.60;;
22254;SDS011;11296;42.684;23.322;2022-11-20T16:39:30;17.37;;;8.00;;
22254;SDS011;11296;42.684;23.322;2022-11-20T16:42:09;9.97;;;6.00;;
22254;SDS011;11296;42.684;23.322;2022-11-20T16:44:37;3.87;;;2.50;;
22254;SDS011;11296;42.684;23.322;2022-11-20T16:47:05;6.40;;;4.03;;
22254;SDS011;11296;42.684;23.322;2022-11-20T16:49:40;6.43;;;3.57;;
22254;SDS011;11296;42.684;23.322;2022-11-20T16:52:21;4.47;;;2.63;;
22254;SDS011;11296;42.684;23.322;2022-11-20T16:55:07;5.50;;;3.20;;
22254;SDS011;11296;42.684;23.322;2022-11-20T16:57:51;5.10;;;3.43;;
22254;SDS011;11296;42.684;23.322;2022-11-20T17:00:28;4.90;;;3.60;;
22254;SDS011;11296;42.684;23.322;2022-11-20T17:03:13;7.77;;;3.90;;
22254;SDS011;11296;42.684;23.322;2022-11-20T17:06:07;11.03;;;3.80;;
22254;SDS011;11296;42.684;23.322;2022-11-20T17:09:05;6.87;;;3.47;;
22254;SDS011;11296;42.684;23.322;2022-11-20T17:11:45;6.97;;;3.60;;
22254;SDS011;11296;42.684;23.322;2022-11-20T17:14:13;8.63;;;5.57;;
22254;SDS011;11296;42.684;23.322;2022-11-20T17:16:41;14.30;;;8.77;;
22254;SDS011;11296;42.684;23.322;2022-11-20T17:19:12;11.97;;;7.07;;
22254;SDS011;11296;42.684;23.322;2022-11-20T17:21:39;11.80;;;6.20;;
22254;SDS011;11296;42.684;23.322;2022-11-20T17:24:06;7.90;;;4.70;;
22254;SDS011;11296;42.684;23.322;2022-11-20T17:26:35;6.43;;;4.87;;
22254;SDS011;11296;42.684;23.322;2022-11-20T17:29:10;7.57;;;4.97;;
22254;SDS011;11296;42.684;23.322;2022-11-20T17:31:50;6.87;;;4.47;;
22254;SDS011;11296;42.684;23.322;2022-11-20T17:34:19;7.17;;;4.80;;
22254;SDS011;11296;42.684;23.322;2022-11-20T17:36:49;8.80;;;5.13;;
22254;SDS011;11296;42.684;23.322;2022-11-20T17:39:20;9.63;;;5.80;;
22254;SDS011;11296;42.684;23.322;2022-11-20T17:41:48;7.20;;;4.50;;
22254;SDS011;11296;42.684;23.322;2022-11-20T17:44:46;10.73;;;5.40;;
22254;SDS011;11296;42.684;23.322;2022-11-20T17:47:15;9.20;;;6.30;;
22254;SDS011;11296;42.684;23.322;2022-11-20T17:49:43;5.73;;;4.27;;
22254;SDS011;11296;42.684;23.322;2022-11-20T17:52:12;6.67;;;3.87;;
22254;SDS011;11296;42.684;23.322;2022-11-20T17:54:45;5.87;;;4.30;;
22254;SDS011;11296;42.684;23.322;2022-11-20T17:57:22;7.00;;;5.80;;
22254;SDS011;11296;42.684;23.322;2022-11-20T18:00:07;6.97;;;5.90;;
22254;SDS011;11296;42.684;23.322;2022-11-20T18:05:49;5.43;;;3.77;;
22254;SDS011;11296;42.684;23.322;2022-11-20T18:08:15;7.63;;;4.20;;
22254;SDS011;11296;42.684;23.322;2022-11-20T18:11:01;8.07;;;4.07;;
22254;SDS011;11296;42.684;23.322;2022-11-20T18:14:04;7.43;;;5.70;;
22254;SDS011;11296;42.684;23.322;2022-11-20T18:17:07;5.53;;;4.03;;
22254;SDS011;11296;42.684;23.322;2022-11-20T18:19:39;5.83;;;3.93;;
22254;SDS011;11296;42.684;23.322;2022-11-20T18:22:12;7.87;;;3.83;;
22254;SDS011;11296;42.684;23.322;2022-11-20T18:24:39;6.17;;;4.17;;
22254;SDS011;11296;42.684;23.322;2022-11-20T18:27:11;4.83;;;3.70;;
22254;SDS011;11296;42.684;23.322;2022-11-20T18:29:39;6.23;;;3.90;;
22254;SDS011;11296;42.684;23.322;2022-11-20T18:32:07;6.63;;;4.20;;
22254;SDS011;11296;42.684;23.322;2022-11-20T18:34:36;4.63;;;3.37;;
22254;SDS011;11296;42.684;23.322;2022-11-20T18:37:09;4.27;;;3.20;;
22254;SDS011;11296;42.684;23.322;2022-11-20T18:39:57;5.37;;;3.20;;
22254;SDS011;11296;42.684;23.322;2022-11-20T18:42:27;3.93;;;2.80;;
22254;SDS011;11296;42.684;23.322;2022-11-20T18:45:17;3.03;;;2.10;;
22254;SDS011;11296;42.684;23.322;2022-11-20T18:47:53;4.23;;;2.50;;
22254;SDS011;11296;42.684;23.322;2022-11-20T18:50:29;2.87;;;2.30;;
22254;SDS011;11296;42.684;23.322;2022-11-20T18:53:00;2.37;;;1.67;;
22254;SDS011;11296;42.684;23.322;2022-11-20T18:55:29;2.97;;;1.77;;
22254;SDS011;11296;42.684;23.322;2022-11-20T18:58:09;1.90;;;1.50;;
22254;SDS011;11296;42.684;23.322;2022-11-20T19:00:35;2.17;;;1.43;;
22254;SDS011;11296;42.684;23.322;2022-11-20T19:06:45;1.87;;;1.17;;
22254;SDS011;11296;42.684;23.322;2022-11-20T19:09:51;2.17;;;0.83;;
22254;SDS011;11296;42.684;23.322;2022-11-20T19:12:22;1.67;;;1.20;;
22254;SDS011;11296;42.684;23.322;2022-11-20T19:15:17;2.10;;;1.40;;
22254;SDS011;11296;42.684;23.322;2022-11-20T19:18:18;2.77;;;1.20;;
22254;SDS011;11296;42.684;23.322;2022-11-20T19:21:48;20.43;;;11.53;;
22254;SDS011;11296;42.684;23.322;2022-11-20T19:31:57;5.27;;;1.80;;
22254;SDS011;11296;42.684;23.322;2022-11-20T19:34:23;4.90;;;2.17;;
22254;SDS011;11296;42.684;23.322;2022-11-20T19:36:50;3.10;;;2.10;;
22254;SDS011;11296;42.684;23.322;2022-11-20T19:39:16;3.87;;;2.10;;
22254;SDS011;11296;42.684;23.322;2022-11-20T19:41:42;2.27;;;1.80;;
22254;SDS011;11296;42.684;23.322;2022-11-20T19:44:12;3.00;;;1.60;;
22254;SDS011;11296;42.684;23.322;2022-11-20T19:46:43;3.13;;;2.00;;
22254;SDS011;11296;42.684;23.322;2022-11-20T19:49:15;4.47;;;1.77;;
22254;SDS011;11296;42.684;23.322;2022-11-20T20:09:22;5.60;;;2.13;;
22254;SDS011;11296;42.684;23.322;2022-11-20T20:20:36;2.77;;;1.70;;
22254;SDS011;11296;42.684;23.322;2022-11-20T20:23:07;2.10;;;1.70;;
22254;SDS011;11296;42.684;23.322;2022-11-20T20:25:40;3.07;;;1.70;;
22254;SDS011;11296;42.684;23.322;2022-11-20T20:28:17;1.77;;;1.50;;
22254;SDS011;11296;42.684;23.322;2022-11-20T20:31:08;1.90;;;1.60;;
22254;SDS011;11296;42.684;23.322;2022-11-20T20:36:47;1.90;;;1.40;;
22254;SDS011;11296;42.684;23.322;2022-11-20T21:01:58;4.23;;;1.60;;
22254;SDS011;11296;42.684;23.322;2022-11-20T21:07:50;2.83;;;1.80;;
22254;SDS011;11296;42.684;23.322;2022-11-20T21:10:36;3.50;;;1.53;;
22254;SDS011;11296;42.684;23.322;2022-11-20T21:17:11;4.63;;;1.80;;
22254;SDS011;11296;42.684;23.322;2022-11-20T21:20:20;3.00;;;2.10;;
22254;SDS011;11296;42.684;23.322;2022-11-20T21:23:22;3.10;;;2.10;;
22254;SDS011;11296;42.684;23.322;2022-11-20T21:26:14;5.70;;;2.13;;
22254;SDS011;11296;42.684;23.322;2022-11-20T21:28:47;2.97;;;2.10;;
22254;SDS011;11296;42.684;23.322;2022-11-20T21:31:21;3.80;;;2.40;;
22254;SDS011;11296;42.684;23.322;2022-11-20T21:34:08;3.90;;;2.53;;
22254;SDS011;11296;42.684;23.322;2022-11-20T21:37:11;3.50;;;2.47;;
22254;SDS011;11296;42.684;23.322;2022-11-20T21:39:55;3.20;;;2.33;;
22254;SDS011;11296;42.684;23.322;2022-11-20T21:42:59;4.50;;;2.30;;
22254;SDS011;11296;42.684;23.322;2022-11-20T21:46:14;3.37;;;2.10;;
22254;SDS011;11296;42.684;23.322;2022-11-20T21:49:10;4.27;;;3.00;;
22254;SDS011;11296;42.684;23.322;2022-11-20T21:59:09;4.23;;;3.10;;
22254;SDS011;11296;42.684;23.322;2022-11-20T22:02:24;6.20;;;3.57;;
22254;SDS011;11296;42.684;23.322;2022-11-20T22:05:08;6.20;;;4.13;;
22254;SDS011;11296;42.684;23.322;2022-11-20T22:23:29;7.50;;;4.97;;
22254;SDS011;11296;42.684;23.322;2022-11-20T22:30:47;7.93;;;5.37;;
22254;SDS011;11296;42.684;23.322;2022-11-20T22:34:13;8.53;;;4.93;;
22254;SDS011;11296;42.684;23.322;2022-11-20T22:36:40;9.37;;;6.33;;
22254;SDS011;11296;42.684;23.322;2022-11-20T22:39:09;7.63;;;5.93;;
22254;SDS011;11296;42.684;23.322;2022-11-20T22:42:02;8.80;;;6.27;;
22254;SDS011;11296;42.684;23.322;2022-11-20T22:44:33;7.83;;;5.77;;
22254;SDS011;11296;42.684;23.322;2022-11-20T22:47:09;8.00;;;6.13;;
22254;SDS011;11296;42.684;23.322;2022-11-20T22:49:37;7.77;;;6.27;;
22254;SDS011;11296;42.684;23.322;2022-11-20T22:52:03;7.93;;;6.40;;
22254;SDS011;11296;42.684;23.322;2022-11-20T22:54:31;9.50;;;6.80;;
22254;SDS011;11296;42.684;23.322;2022-11-20T22:57:03;10.17;;;7.10;;
22254;SDS011;11296;42.684;23.322;2022-11-20T22:59:29;9.13;;;6.83;;
22254;SDS011;11296;42.684;23.322;2022-11-20T23:01:55;12.33;;;7.57;;
22254;SDS011;11296;42.684;23.322;2022-11-20T23:04:21;8.93;;;7.17;;
22254;SDS011;11296;42.684;23.322;2022-11-20T23:06:49;11.07;;;7.53;;
22254;SDS011;11296;42.684;23.322;2022-11-20T23:09:18;11.13;;;7.77;;
22254;SDS011;11296;42.684;23.322;2022-11-20T23:11:49;12.20;;;8.10;;
22254;SDS011;11296;42.684;23.322;2022-11-20T23:14:17;9.93;;;7.57;;
22254;SDS011;11296;42.684;23.322;2022-11-20T23:16:43;10.00;;;8.03;;
22254;SDS011;11296;42.684;23.322;2022-11-20T23:19:10;9.57;;;8.03;;
22254;SDS011;11296;42.684;23.322;2022-11-20T23:21:40;9.33;;;7.60;;
22254;SDS011;11296;42.684;23.322;2022-11-20T23:24:14;11.23;;;7.33;;
22254;SDS011;11296;42.684;23.322;2022-11-20T23:26:40;10.73;;;8.27;;
22254;SDS011;11296;42.684;23.322;2022-11-20T23:29:06;11.17;;;7.53;;
22254;SDS011;11296;42.684;23.322;2022-11-20T23:31:37;8.70;;;7.40;;
22254;SDS011;11296;42.684;23.322;2022-11-20T23:34:14;12.07;;;8.20;;
22254;SDS011;11296;42.684;23.322;2022-11-20T23:36:51;10.20;;;7.67;;
22254;SDS011;11296;42.684;23.322;2022-11-20T23:39:28;11.03;;;7.83;;
22254;SDS011;11296;42.684;23.322;2022-11-20T23:41:53;11.00;;;8.00;;
22254;SDS011;11296;42.684;23.322;2022-11-20T23:44:19;9.73;;;8.30;;
22254;SDS011;11296;42.684;23.322;2022-11-20T23:46:45;12.47;;;9.03;;
22254;SDS011;11296;42.684;23.322;2022-11-20T23:49:10;12.97;;;8.60;;
22254;SDS011;11296;42.684;23.322;2022-11-20T23:51:36;10.33;;;8.47;;
22254;SDS011;11296;42.684;23.322;2022-11-20T23:54:05;11.43;;;8.87;;
22254;SDS011;11296;42.684;23.322;2022-11-20T23:56:31;10.80;;;8.50;;
22254;SDS011;11296;42.684;23.322;2022-11-20T23:59:15;9.70;;;8.30;;
